Time;durP1;ratioP1;P1;durP2;ratioP2;P2;SDS_P1;SDS_P2;PMS_P1;PMS_P2;Temp;Humidity;BMP_temperature;BMP_pressure;BME280_temperature;BME280_humidity;BME280_pressure;Samples;Min_cycle;Max_cycle;Signal;HPM_P1;HPM_P2
2023/03/03 00:01:17;;;;;;;7.35;4.50;;;4.80;99.90;;;;;;5034283;28;20055;-59
2023/03/03 00:03:44;;;;;;;5.57;3.92;;;4.90;99.90;;;;;;5034565;28;20049;-59
2023/03/03 00:06:10;;;;;;;9.32;4.38;;;4.90;99.90;;;;;;5032955;28;20057;-58
2023/03/03 00:08:37;;;;;;;5.38;3.83;;;4.90;99.90;;;;;;5034269;28;20044;-61
2023/03/03 00:11:05;;;;;;;5.65;3.95;;;4.90;99.90;;;;;;5034534;28;20386;-56
2023/03/03 00:13:32;;;;;;;6.97;4.30;;;4.90;99.90;;;;;;5034284;28;20053;-58
2023/03/03 00:15:59;;;;;;;5.97;4.38;;;4.90;99.90;;;;;;5034397;28;20463;-59
2023/03/03 00:18:26;;;;;;;11.55;4.40;;;5.00;99.90;;;;;;5034235;28;20091;-60
2023/03/03 00:20:53;;;;;;;6.53;4.32;;;5.00;99.90;;;;;;5034069;28;20118;-61
2023/03/03 00:23:20;;;;;;;7.00;4.63;;;5.00;99.90;;;;;;5034132;28;20038;-58
2023/03/03 00:25:47;;;;;;;8.02;4.47;;;5.00;99.90;;;;;;5034260;28;20060;-60
2023/03/03 00:28:14;;;;;;;7.95;4.47;;;5.00;99.90;;;;;;5034467;28;20052;-58
2023/03/03 00:30:40;;;;;;;9.82;4.70;;;5.00;99.90;;;;;;5032735;28;20046;-60
2023/03/03 00:33:08;;;;;;;9.15;4.55;;;5.00;99.90;;;;;;5034150;28;20041;-57
2023/03/03 00:35:37;;;;;;;10.70;4.72;;;5.00;99.90;;;;;;5032694;28;20045;-58
2023/03/03 00:38:04;;;;;;;8.82;4.75;;;5.00;99.90;;;;;;5032331;28;20045;-59
2023/03/03 00:40:31;;;;;;;9.27;5.20;;;5.00;99.90;;;;;;5033714;28;20095;-60
2023/03/03 00:42:58;;;;;;;10.27;5.00;;;5.10;99.90;;;;;;5033856;28;20049;-58
2023/03/03 00:45:25;;;;;;;6.47;4.68;;;5.10;99.90;;;;;;5032320;28;20045;-58
2023/03/03 00:47:52;;;;;;;6.80;4.60;;;5.10;99.90;;;;;;5032731;28;20091;-59
2023/03/03 00:50:20;;;;;;;7.72;4.40;;;5.10;99.90;;;;;;5032600;28;20103;-61
2023/03/03 00:52:46;;;;;;;6.47;4.55;;;5.00;99.90;;;;;;5033627;28;20045;-59
2023/03/03 00:55:13;;;;;;;9.20;4.63;;;5.00;99.90;;;;;;5032269;28;20091;-58
2023/03/03 00:57:40;;;;;;;11.32;4.95;;;5.00;99.90;;;;;;5031963;28;20045;-58
2023/03/03 01:00:09;;;;;;;9.60;4.95;;;5.10;99.90;;;;;;5032167;28;20053;-60
2023/03/03 01:02:36;;;;;;;9.52;4.78;;;5.10;99.90;;;;;;5032107;28;20524;-56
2023/03/03 01:05:03;;;;;;;8.98;5.03;;;5.10;99.90;;;;;;5032189;28;20064;-60
2023/03/03 01:07:30;;;;;;;9.50;4.75;;;5.10;99.90;;;;;;5033600;28;20046;-60
2023/03/03 01:09:57;;;;;;;9.77;4.45;;;5.10;99.90;;;;;;5033725;28;20529;-59
2023/03/03 01:12:23;;;;;;;10.18;4.53;;;5.10;99.90;;;;;;5033576;28;20072;-58
2023/03/03 01:14:51;;;;;;;7.47;5.15;;;5.20;99.90;;;;;;5032263;28;20053;-60
2023/03/03 01:17:18;;;;;;;8.15;4.78;;;5.20;99.90;;;;;;5033330;28;20408;-59
2023/03/03 01:19:45;;;;;;;10.85;5.28;;;5.20;99.90;;;;;;5033520;28;20049;-60
2023/03/03 01:22:12;;;;;;;8.50;5.00;;;5.20;99.90;;;;;;5033522;28;20053;-60
2023/03/03 01:24:38;;;;;;;7.50;5.15;;;5.20;99.90;;;;;;5032301;28;20049;-59
2023/03/03 01:27:05;;;;;;;7.07;5.60;;;5.20;99.90;;;;;;5031874;28;20068;-59
2023/03/03 01:29:32;;;;;;;11.73;6.20;;;5.10;99.90;;;;;;5033596;28;20087;-59
2023/03/03 01:31:59;;;;;;;11.05;5.50;;;5.10;99.90;;;;;;5032129;28;20380;-59
2023/03/03 01:34:26;;;;;;;6.95;5.40;;;5.10;99.90;;;;;;5033082;28;20092;-56
2023/03/03 01:36:52;;;;;;;10.82;5.70;;;5.20;99.90;;;;;;5033177;28;20058;-61
2023/03/03 01:39:20;;;;;;;10.82;6.60;;;5.10;99.90;;;;;;5031886;28;20103;-58
2023/03/03 01:41:47;;;;;;;8.70;5.80;;;5.20;99.90;;;;;;5033129;28;20038;-58
2023/03/03 01:44:14;;;;;;;10.70;5.80;;;5.20;99.90;;;;;;5031907;28;20046;-61
2023/03/03 01:46:41;;;;;;;10.82;5.40;;;5.20;99.90;;;;;;5033210;28;20412;-60
2023/03/03 01:49:08;;;;;;;8.23;5.57;;;5.10;99.90;;;;;;5034561;28;20073;-55
2023/03/03 01:51:35;;;;;;;9.73;5.93;;;5.20;99.90;;;;;;5037264;28;20041;-60
2023/03/03 01:54:02;;;;;;;8.98;5.25;;;5.20;99.90;;;;;;5036823;28;20052;-57
2023/03/03 01:56:28;;;;;;;10.73;5.55;;;5.20;99.90;;;;;;5035519;28;20571;-55
2023/03/03 01:58:55;;;;;;;9.77;5.68;;;5.20;99.90;;;;;;5035737;28;20046;-59
2023/03/03 02:01:22;;;;;;;10.90;6.50;;;5.20;99.90;;;;;;5037025;28;20389;-56
2023/03/03 02:03:49;;;;;;;9.27;5.40;;;5.20;99.90;;;;;;5036690;28;20045;-57
2023/03/03 02:06:16;;;;;;;11.00;5.63;;;5.10;99.90;;;;;;5036509;28;20048;-53
2023/03/03 02:08:43;;;;;;;11.00;5.45;;;5.10;99.90;;;;;;5036937;28;20394;-55
2023/03/03 02:11:09;;;;;;;9.35;6.00;;;5.10;99.90;;;;;;5034939;28;20053;-59
2023/03/03 02:13:36;;;;;;;8.30;5.55;;;5.10;99.90;;;;;;5034682;28;20045;-59
2023/03/03 02:16:03;;;;;;;11.50;6.18;;;5.10;99.90;;;;;;5036537;28;20048;-59
2023/03/03 02:18:30;;;;;;;8.48;5.97;;;5.10;99.90;;;;;;5035087;28;20069;-58
2023/03/03 02:20:57;;;;;;;12.73;6.60;;;5.10;99.90;;;;;;5036017;28;20046;-58
2023/03/03 02:23:23;;;;;;;10.88;5.85;;;5.10;99.90;;;;;;5034677;28;20083;-54
2023/03/03 02:25:50;;;;;;;10.50;6.28;;;5.10;99.90;;;;;;5034576;28;20049;-59
2023/03/03 02:28:17;;;;;;;11.88;5.63;;;5.10;99.90;;;;;;5035304;28;20065;-59
2023/03/03 02:30:44;;;;;;;9.80;6.68;;;5.10;99.90;;;;;;5036297;28;20457;-59
2023/03/03 02:33:11;;;;;;;10.52;6.60;;;5.10;99.90;;;;;;5034746;28;20038;-58
2023/03/03 02:35:41;;;;;;;8.40;6.18;;;5.10;99.90;;;;;;5035302;28;20076;-57
2023/03/03 02:38:08;;;;;;;12.75;6.43;;;5.10;99.90;;;;;;5036278;28;20041;-58
2023/03/03 02:40:35;;;;;;;9.85;6.38;;;5.10;99.90;;;;;;5036168;28;20087;-56
2023/03/03 02:43:02;;;;;;;8.60;7.00;;;5.10;99.90;;;;;;5035981;28;20040;-59
2023/03/03 02:45:30;;;;;;;10.60;6.75;;;5.10;99.90;;;;;;5034651;28;20057;-59
2023/03/03 02:47:57;;;;;;;12.25;6.75;;;5.10;99.90;;;;;;5034416;28;20049;-57
2023/03/03 02:50:24;;;;;;;10.38;7.00;;;5.10;99.90;;;;;;5034791;28;20048;-58
2023/03/03 02:52:51;;;;;;;10.32;6.57;;;5.10;99.90;;;;;;5035644;28;20091;-57
2023/03/03 02:55:18;;;;;;;11.90;6.95;;;5.10;99.90;;;;;;5034530;28;20068;-59
2023/03/03 02:57:45;;;;;;;10.23;6.72;;;5.10;99.90;;;;;;5034642;28;20049;-59
2023/03/03 03:00:11;;;;;;;9.63;6.95;;;5.10;99.90;;;;;;5034202;28;20050;-59
2023/03/03 03:02:38;;;;;;;10.38;7.00;;;5.10;99.90;;;;;;5035471;28;20037;-57
2023/03/03 03:05:07;;;;;;;11.23;7.13;;;5.20;99.90;;;;;;5034509;28;20046;-59
2023/03/03 03:07:36;;;;;;;11.05;7.22;;;5.20;99.90;;;;;;5035283;28;20151;-56
2023/03/03 03:10:03;;;;;;;10.45;7.50;;;5.20;99.90;;;;;;5034172;28;20050;-59
2023/03/03 03:12:33;;;;;;;13.95;7.50;;;5.20;99.90;;;;;;5033958;28;20041;-59
2023/03/03 03:15:00;;;;;;;9.77;6.55;;;5.20;99.90;;;;;;5035747;28;20416;-56
2023/03/03 03:17:28;;;;;;;8.95;6.53;;;5.10;99.90;;;;;;5033820;28;20037;-54
2023/03/03 03:19:57;;;;;;;11.95;6.90;;;5.10;99.90;;;;;;5033696;28;20060;-59
2023/03/03 03:22:24;;;;;;;10.90;7.20;;;5.10;99.90;;;;;;5033941;28;20137;-57
2023/03/03 03:24:51;;;;;;;11.45;7.40;;;5.10;99.90;;;;;;5035076;28;20076;-53
2023/03/03 03:27:18;;;;;;;11.25;7.00;;;5.00;99.90;;;;;;5035014;28;20038;-59
2023/03/03 03:29:46;;;;;;;11.13;7.03;;;5.00;99.90;;;;;;5033634;28;20053;-59
2023/03/03 03:32:13;;;;;;;13.68;7.35;;;5.00;99.90;;;;;;5033386;28;20096;-60
2023/03/03 03:34:40;;;;;;;9.98;6.63;;;5.00;99.90;;;;;;5033854;28;20049;-58
2023/03/03 03:37:08;;;;;;;9.80;7.57;;;5.00;99.90;;;;;;5033568;28;20057;-60
2023/03/03 03:39:36;;;;;;;11.90;6.90;;;5.00;99.90;;;;;;5033284;28;20136;-59
2023/03/03 03:42:03;;;;;;;10.23;6.72;;;5.00;99.90;;;;;;5033378;28;20163;-58
2023/03/03 03:44:30;;;;;;;10.25;7.18;;;4.90;99.90;;;;;;5034627;28;20095;-60
2023/03/03 03:46:57;;;;;;;10.18;7.25;;;4.90;99.90;;;;;;5033498;28;20107;-57
2023/03/03 03:49:24;;;;;;;11.32;6.88;;;4.90;99.90;;;;;;5033641;28;20437;-58
2023/03/03 03:51:53;;;;;;;10.82;6.75;;;4.90;99.90;;;;;;5033216;28;20133;-59
2023/03/03 03:54:23;;;;;;;9.45;6.57;;;5.00;99.90;;;;;;5033298;28;20385;-58
2023/03/03 03:56:51;;;;;;;10.30;7.25;;;4.90;99.90;;;;;;5033337;28;20049;-52
2023/03/03 03:59:18;;;;;;;13.40;7.50;;;5.00;99.90;;;;;;5033554;28;20038;-56
2023/03/03 04:01:47;;;;;;;12.40;7.47;;;4.90;99.90;;;;;;5033512;28;20373;-60
2023/03/03 04:04:14;;;;;;;11.88;6.63;;;4.90;99.90;;;;;;5034248;28;20488;-55
2023/03/03 04:06:41;;;;;;;9.40;6.85;;;5.00;99.90;;;;;;5032909;28;20045;-59
2023/03/03 04:09:08;;;;;;;9.45;6.78;;;5.00;99.90;;;;;;5034335;28;20037;-58
2023/03/03 04:11:35;;;;;;;8.95;6.85;;;4.90;99.90;;;;;;5033528;28;20057;-58
2023/03/03 04:14:04;;;;;;;8.75;6.22;;;4.90;99.90;;;;;;5032371;28;20132;-59
2023/03/03 04:16:31;;;;;;;11.18;7.05;;;4.90;99.90;;;;;;5033313;28;20132;-58
2023/03/03 04:18:58;;;;;;;11.25;6.82;;;4.90;99.90;;;;;;5034327;28;20049;-53
2023/03/03 04:21:26;;;;;;;7.75;6.63;;;4.90;99.90;;;;;;5032621;28;20520;-56
2023/03/03 04:23:56;;;;;;;9.50;6.10;;;4.90;99.90;;;;;;5032448;28;20388;-59
2023/03/03 04:26:25;;;;;;;12.90;5.97;;;4.90;99.90;;;;;;5032539;28;20046;-58
2023/03/03 04:28:52;;;;;;;10.50;6.53;;;4.90;99.90;;;;;;5033129;28;20037;-57
2023/03/03 04:31:20;;;;;;;10.27;6.20;;;4.90;99.90;;;;;;5032580;28;20485;-58
2023/03/03 04:33:47;;;;;;;8.30;6.20;;;4.90;99.90;;;;;;5032840;28;20045;-58
2023/03/03 04:36:14;;;;;;;9.75;5.80;;;4.90;99.90;;;;;;5032682;28;20041;-59
2023/03/03 04:38:41;;;;;;;7.85;5.85;;;4.90;99.90;;;;;;5034145;28;20499;-58
2023/03/03 04:41:08;;;;;;;7.63;5.97;;;4.90;99.90;;;;;;5032809;28;20049;-58
2023/03/03 04:43:37;;;;;;;9.60;5.57;;;4.90;99.90;;;;;;5032561;28;20071;-59
2023/03/03 04:46:04;;;;;;;7.35;5.47;;;4.80;99.90;;;;;;5032402;28;20095;-61
2023/03/03 04:48:31;;;;;;;8.55;5.85;;;4.80;99.90;;;;;;5032180;28;20121;-59
2023/03/03 04:50:58;;;;;;;10.50;5.57;;;4.80;99.90;;;;;;5032074;28;20041;-59
2023/03/03 04:53:25;;;;;;;8.25;5.53;;;4.80;99.90;;;;;;5032472;28;20052;-60
2023/03/03 04:55:52;;;;;;;6.90;5.30;;;4.80;99.90;;;;;;5033994;28;20149;-60
2023/03/03 04:58:20;;;;;;;9.65;5.60;;;4.80;99.90;;;;;;5016531;28;20126;-59
2023/03/03 05:00:47;;;;;;;7.10;5.40;;;4.80;99.90;;;;;;5032212;28;20377;-59
2023/03/03 05:03:14;;;;;;;7.30;5.85;;;4.80;99.90;;;;;;5033258;28;20049;-58
2023/03/03 05:05:41;;;;;;;10.40;5.20;;;4.80;99.90;;;;;;5031924;28;20049;-60
2023/03/03 05:08:08;;;;;;;7.03;5.22;;;4.70;99.90;;;;;;5033327;28;20038;-57
2023/03/03 05:10:35;;;;;;;8.32;5.00;;;4.80;99.90;;;;;;5033868;28;20068;-58
2023/03/03 05:13:02;;;;;;;6.13;5.05;;;4.70;99.90;;;;;;5033170;28;20053;-60
2023/03/03 05:15:29;;;;;;;9.82;5.97;;;4.70;99.90;;;;;;5033416;28;20042;-59
2023/03/03 05:17:56;;;;;;;6.72;4.60;;;4.80;99.90;;;;;;5033106;28;20053;-59
2023/03/03 05:20:22;;;;;;;7.50;4.85;;;4.70;99.90;;;;;;5033552;28;20079;-58
2023/03/03 05:22:49;;;;;;;7.07;4.75;;;4.70;99.90;;;;;;5033868;28;20041;-58
2023/03/03 05:25:16;;;;;;;7.32;4.43;;;4.70;99.90;;;;;;5037685;28;20132;-56
2023/03/03 05:27:42;;;;;;;7.47;4.82;;;4.70;99.90;;;;;;5037296;28;20041;-59
2023/03/03 05:30:09;;;;;;;7.00;4.40;;;4.70;99.90;;;;;;5037404;28;20084;-61
2023/03/03 05:32:36;;;;;;;7.57;4.78;;;4.60;99.90;;;;;;5037320;28;20038;-60
2023/03/03 05:35:03;;;;;;;9.00;4.45;;;4.60;99.90;;;;;;5037455;28;20041;-59
2023/03/03 05:37:30;;;;;;;5.53;3.97;;;4.70;99.90;;;;;;5037066;28;20473;-58
2023/03/03 05:39:56;;;;;;;8.07;4.22;;;4.60;99.90;;;;;;5037100;28;20037;-60
2023/03/03 05:42:23;;;;;;;8.32;4.47;;;4.60;99.90;;;;;;5036685;28;20492;-59
2023/03/03 05:44:50;;;;;;;8.60;4.35;;;4.60;99.90;;;;;;5037011;28;20470;-57
2023/03/03 05:47:17;;;;;;;6.40;4.63;;;4.60;99.90;;;;;;5037262;28;20465;-57
2023/03/03 05:49:43;;;;;;;5.72;3.83;;;4.60;99.90;;;;;;5035983;28;20107;-53
2023/03/03 05:52:11;;;;;;;6.80;4.38;;;4.60;99.90;;;;;;5037358;28;20042;-59
2023/03/03 05:54:37;;;;;;;6.45;4.47;;;4.60;99.90;;;;;;5037216;28;20428;-56
2023/03/03 05:57:04;;;;;;;7.60;4.57;;;4.50;99.90;;;;;;5036701;28;20042;-60
2023/03/03 05:59:31;;;;;;;5.50;4.05;;;4.50;99.90;;;;;;5036567;28;20046;-57
2023/03/03 06:01:57;;;;;;;7.70;4.95;;;4.50;99.90;;;;;;5036463;28;20049;-56
2023/03/03 06:04:24;;;;;;;7.00;4.65;;;4.60;99.90;;;;;;5035471;28;20132;-59
2023/03/03 06:06:51;;;;;;;6.53;4.30;;;4.60;99.90;;;;;;5037011;28;20590;-58
2023/03/03 06:09:18;;;;;;;6.75;4.95;;;4.50;99.90;;;;;;5036496;28;20554;-59
2023/03/03 06:11:44;;;;;;;7.43;3.97;;;4.50;99.90;;;;;;5036695;28;20037;-52
2023/03/03 06:14:11;;;;;;;8.25;4.30;;;4.50;99.90;;;;;;5036448;28;20111;-55
2023/03/03 06:16:38;;;;;;;6.22;4.53;;;4.50;99.90;;;;;;5036256;28;20030;-56
2023/03/03 06:19:05;;;;;;;8.93;4.28;;;4.60;99.90;;;;;;5036383;28;20044;-59
2023/03/03 06:21:32;;;;;;;6.55;4.07;;;4.60;99.90;;;;;;5036323;28;20050;-57
2023/03/03 06:23:58;;;;;;;7.10;4.38;;;4.60;99.90;;;;;;5034896;28;20053;-59
2023/03/03 06:26:25;;;;;;;5.78;4.20;;;4.60;99.90;;;;;;5036106;28;20123;-59
2023/03/03 06:28:54;;;;;;;6.43;4.30;;;4.50;99.90;;;;;;5036111;28;20064;-59
2023/03/03 06:31:21;;;;;;;6.53;4.40;;;4.50;99.90;;;;;;5036093;28;20034;-57
2023/03/03 06:33:47;;;;;;;12.10;4.60;;;4.50;99.90;;;;;;5035476;28;20037;-60
2023/03/03 06:36:14;;;;;;;8.65;4.45;;;4.50;99.90;;;;;;5036313;28;20068;-56
2023/03/03 06:38:41;;;;;;;6.43;4.32;;;4.50;99.90;;;;;;5036165;28;20041;-60
2023/03/03 06:41:07;;;;;;;7.90;4.05;;;4.50;99.90;;;;;;5036047;28;20065;-56
2023/03/03 06:43:34;;;;;;;5.97;3.95;;;4.60;99.90;;;;;;5035803;28;20072;-55
2023/03/03 06:46:01;;;;;;;6.82;4.13;;;4.50;99.90;;;;;;5036063;28;20048;-54
2023/03/03 06:48:28;;;;;;;8.52;3.70;;;4.50;99.90;;;;;;5035947;28;20473;-61
2023/03/03 06:50:54;;;;;;;6.18;4.05;;;4.50;99.90;;;;;;5036332;28;20407;-58
2023/03/03 06:53:21;;;;;;;9.50;4.30;;;4.50;99.90;;;;;;5035736;28;20103;-58
2023/03/03 06:55:48;;;;;;;7.93;4.32;;;4.50;99.90;;;;;;5035640;28;20087;-53
2023/03/03 06:58:15;;;;;;;6.93;4.05;;;4.50;99.90;;;;;;5034533;28;20401;-58
2023/03/03 07:00:42;;;;;;;8.43;3.88;;;4.50;99.90;;;;;;5036099;28;20052;-54
2023/03/03 07:03:09;;;;;;;5.38;4.20;;;4.50;99.90;;;;;;5035787;28;20396;-53
2023/03/03 07:05:36;;;;;;;6.25;3.90;;;4.50;99.90;;;;;;5036236;28;20144;-54
2023/03/03 07:08:03;;;;;;;7.70;3.83;;;4.50;99.90;;;;;;5035938;28;20099;-56
2023/03/03 07:10:30;;;;;;;10.27;4.00;;;4.50;99.90;;;;;;5034325;28;20444;-59
2023/03/03 07:12:57;;;;;;;6.60;4.05;;;4.60;99.90;;;;;;5035433;28;20556;-57
2023/03/03 07:15:24;;;;;;;5.95;3.78;;;4.60;99.90;;;;;;5036005;28;20041;-60
2023/03/03 07:17:50;;;;;;;7.20;4.10;;;4.60;99.90;;;;;;5035129;28;20471;-56
2023/03/03 07:20:17;;;;;;;7.95;4.10;;;4.60;99.90;;;;;;5035214;28;20041;-57
2023/03/03 07:22:44;;;;;;;6.05;4.03;;;4.60;99.90;;;;;;5034988;28;20057;-55
2023/03/03 07:25:10;;;;;;;8.48;4.43;;;4.60;99.90;;;;;;5034607;28;20045;-58
2023/03/03 07:27:37;;;;;;;8.38;4.47;;;4.60;99.90;;;;;;5035227;28;20504;-60
2023/03/03 07:30:04;;;;;;;6.90;4.15;;;4.50;99.90;;;;;;5017965;28;20046;-59
2023/03/03 07:32:31;;;;;;;7.60;4.38;;;4.60;99.90;;;;;;5035392;28;20370;-53
2023/03/03 07:34:57;;;;;;;6.28;4.40;;;4.60;99.90;;;;;;5035330;28;20120;-59
2023/03/03 07:37:24;;;;;;;10.00;4.43;;;4.60;99.90;;;;;;5034674;28;20045;-59
2023/03/03 07:39:51;;;;;;;6.38;3.92;;;4.60;99.90;;;;;;5035152;28;20043;-61
2023/03/03 07:42:18;;;;;;;9.27;4.43;;;4.70;99.90;;;;;;5034696;28;20072;-55
2023/03/03 07:44:50;;;;;;;7.93;4.60;;;4.70;99.90;;;;;;5033423;28;20060;-60
2023/03/03 07:47:18;;;;;;;8.68;4.50;;;4.70;99.90;;;;;;5034387;28;20111;-57
2023/03/03 07:49:44;;;;;;;8.15;4.47;;;4.70;99.90;;;;;;5034422;28;20033;-57
2023/03/03 07:52:11;;;;;;;6.80;4.25;;;4.80;99.90;;;;;;5033971;28;20041;-59
2023/03/03 07:54:39;;;;;;;8.73;4.35;;;4.80;99.90;;;;;;5034386;28;20091;-58
2023/03/03 07:57:06;;;;;;;9.23;5.00;;;4.90;99.90;;;;;;5035010;28;20037;-59
2023/03/03 07:59:33;;;;;;;8.02;4.65;;;4.90;99.90;;;;;;5034359;28;20037;-58
2023/03/03 08:02:00;;;;;;;8.93;4.93;;;4.90;99.90;;;;;;5032873;28;20049;-54
2023/03/03 08:04:27;;;;;;;10.43;5.68;;;4.90;99.90;;;;;;5033697;28;20033;-60
2023/03/03 08:06:54;;;;;;;7.95;5.20;;;4.90;99.90;;;;;;5032949;28;20041;-58
2023/03/03 08:09:20;;;;;;;8.75;5.45;;;5.00;99.90;;;;;;5032709;28;20045;-59
2023/03/03 08:11:47;;;;;;;8.10;4.47;;;5.00;99.90;;;;;;5032671;28;20041;-56
2023/03/03 08:14:14;;;;;;;8.85;4.85;;;5.00;99.90;;;;;;5031158;28;20053;-56
2023/03/03 08:16:40;;;;;;;13.10;4.82;;;5.00;99.90;;;;;;5032783;28;20436;-57
2023/03/03 08:19:07;;;;;;;8.73;4.82;;;5.00;99.90;;;;;;5032888;28;20136;-56
2023/03/03 08:21:34;;;;;;;7.72;5.05;;;5.10;99.90;;;;;;5034388;28;20472;-55
2023/03/03 08:24:01;;;;;;;9.45;4.28;;;5.10;99.90;;;;;;5033893;28;20041;-58
2023/03/03 08:26:27;;;;;;;9.38;4.45;;;5.20;99.90;;;;;;5033971;28;20095;-59
2023/03/03 08:28:54;;;;;;;8.30;5.10;;;5.20;99.90;;;;;;5034052;28;20107;-57
2023/03/03 08:31:21;;;;;;;6.70;4.10;;;5.20;99.90;;;;;;5033878;28;20037;-59
2023/03/03 08:34:06;;;;;;;7.07;4.20;;;5.30;99.90;;;;;;5033969;28;20120;-59
2023/03/03 08:36:32;;;;;;;6.78;4.10;;;5.40;99.90;;;;;;5033915;28;20057;-59
2023/03/03 08:39:00;;;;;;;11.02;5.05;;;5.40;99.90;;;;;;5034200;28;20455;-62
2023/03/03 08:41:27;;;;;;;6.97;4.72;;;5.50;99.90;;;;;;5033914;28;20095;-61
2023/03/03 08:43:54;;;;;;;8.07;4.38;;;5.60;99.90;;;;;;5033683;28;20099;-60
2023/03/03 08:46:20;;;;;;;7.70;4.50;;;5.70;99.90;;;;;;5033428;28;20045;-59
2023/03/03 08:48:48;;;;;;;9.52;5.07;;;5.70;99.90;;;;;;5033483;28;20071;-59
2023/03/03 08:51:15;;;;;;;7.68;4.82;;;5.70;99.90;;;;;;5033747;28;20469;-59
2023/03/03 08:53:42;;;;;;;6.15;4.43;;;5.70;99.90;;;;;;5033504;28;20473;-61
2023/03/03 08:56:09;;;;;;;7.05;4.72;;;5.80;99.90;;;;;;5033440;28;20042;-54
2023/03/03 08:58:36;;;;;;;9.90;4.60;;;5.90;99.90;;;;;;5033661;28;20053;-59
2023/03/03 09:01:03;;;;;;;10.95;4.72;;;5.90;99.90;;;;;;5033216;28;20117;-61
2023/03/03 09:03:29;;;;;;;8.38;5.45;;;6.00;99.90;;;;;;5033469;28;20045;-57
2023/03/03 09:05:56;;;;;;;7.38;5.35;;;6.00;99.90;;;;;;5033993;28;20045;-59
2023/03/03 09:08:23;;;;;;;8.20;4.78;;;6.00;99.90;;;;;;5033738;28;20064;-60
2023/03/03 09:10:50;;;;;;;12.18;5.03;;;6.00;99.90;;;;;;5033573;28;20041;-58
2023/03/03 09:13:17;;;;;;;8.00;4.28;;;6.00;99.90;;;;;;5033189;28;20123;-59
2023/03/03 09:15:44;;;;;;;6.80;4.30;;;6.00;99.90;;;;;;5033167;28;20039;-59
2023/03/03 09:18:11;;;;;;;5.93;4.05;;;6.10;99.90;;;;;;5032379;28;20099;-56
2023/03/03 09:20:38;;;;;;;7.25;4.38;;;6.10;99.90;;;;;;5033191;28;20131;-58
2023/03/03 09:23:04;;;;;;;9.35;4.68;;;6.20;99.90;;;;;;5033438;28;20045;-59
2023/03/03 09:25:31;;;;;;;8.82;4.07;;;6.20;99.90;;;;;;5033618;28;20046;-59
2023/03/03 09:27:58;;;;;;;9.27;3.97;;;6.30;99.90;;;;;;5033173;28;20473;-58
2023/03/03 09:30:25;;;;;;;5.88;3.53;;;6.20;99.90;;;;;;5032083;28;20060;-60
2023/03/03 09:32:51;;;;;;;10.73;4.40;;;6.20;99.90;;;;;;5033083;28;20037;-61
2023/03/03 09:35:18;;;;;;;12.68;3.90;;;6.30;99.90;;;;;;5033114;28;20049;-58
2023/03/03 09:37:45;;;;;;;6.03;3.45;;;6.40;99.90;;;;;;5032962;28;20119;-59
2023/03/03 09:40:12;;;;;;;6.53;3.67;;;6.30;99.90;;;;;;5032933;28;20064;-58
2023/03/03 09:42:41;;;;;;;5.35;3.20;;;6.40;99.90;;;;;;5033070;28;20068;-59
2023/03/03 09:45:09;;;;;;;5.93;3.63;;;6.40;99.90;;;;;;5033419;28;20046;-57
2023/03/03 09:47:36;;;;;;;7.55;3.65;;;6.40;99.90;;;;;;5033411;28;20045;-55
2023/03/03 09:50:03;;;;;;;9.80;3.22;;;6.40;99.90;;;;;;5032812;28;20594;-58
2023/03/03 09:52:29;;;;;;;6.65;3.20;;;6.50;99.90;;;;;;5033158;28;20108;-59
2023/03/03 09:54:56;;;;;;;8.52;3.03;;;6.50;99.90;;;;;;5032991;28;20488;-59
2023/03/03 09:57:23;;;;;;;5.47;3.28;;;6.60;99.90;;;;;;5032898;28;20048;-59
2023/03/03 09:59:50;;;;;;;10.57;3.45;;;6.60;99.90;;;;;;5033277;28;20041;-60
2023/03/03 10:02:16;;;;;;;7.78;3.45;;;6.60;99.90;;;;;;5033290;28;20073;-57
2023/03/03 10:04:43;;;;;;;8.05;2.92;;;6.60;99.90;;;;;;5033075;28;20115;-57
2023/03/03 10:07:11;;;;;;;5.28;2.90;;;6.70;99.90;;;;;;5033304;28;20507;-60
2023/03/03 10:09:37;;;;;;;11.45;3.00;;;6.70;99.90;;;;;;5034326;28;20049;-59
2023/03/03 10:12:04;;;;;;;6.45;2.92;;;6.70;99.90;;;;;;5036890;28;20156;-59
2023/03/03 10:14:31;;;;;;;6.80;3.38;;;6.70;99.90;;;;;;5036343;28;20103;-59
2023/03/03 10:16:58;;;;;;;7.55;2.72;;;6.70;99.90;;;;;;5036842;28;20539;-58
2023/03/03 10:19:25;;;;;;;7.55;2.85;;;6.70;99.90;;;;;;5036248;28;20042;-59
2023/03/03 10:21:52;;;;;;;7.75;2.95;;;6.70;99.90;;;;;;5036606;28;20052;-54
2023/03/03 10:24:19;;;;;;;9.38;2.75;;;6.70;99.90;;;;;;5036093;28;20092;-60
2023/03/03 10:26:46;;;;;;;11.65;2.90;;;6.70;99.90;;;;;;5036457;28;20045;-59
2023/03/03 10:29:32;;;;;;;7.15;3.20;;;6.70;99.90;;;;;;5036544;28;20060;-59
2023/03/03 10:31:59;;;;;;;8.82;2.67;;;6.60;99.90;;;;;;5035329;28;20046;-55
2023/03/03 10:34:26;;;;;;;5.55;2.65;;;6.60;99.90;;;;;;5036104;28;20117;-57
2023/03/03 10:36:53;;;;;;;6.60;2.95;;;6.70;99.90;;;;;;5035772;28;20038;-57
2023/03/03 10:39:20;;;;;;;5.57;2.22;;;6.70;99.90;;;;;;5035993;28;20424;-56
2023/03/03 10:41:46;;;;;;;6.65;2.33;;;6.80;99.90;;;;;;5036205;28;20053;-58
2023/03/03 10:44:13;;;;;;;4.68;2.20;;;6.80;99.90;;;;;;5034469;28;20049;-57
2023/03/03 10:46:40;;;;;;;5.68;2.47;;;6.70;99.90;;;;;;5035856;28;20045;-59
2023/03/03 10:49:07;;;;;;;5.10;2.53;;;6.70;99.90;;;;;;5036107;28;20112;-60
2023/03/03 10:51:33;;;;;;;8.75;3.25;;;6.70;99.90;;;;;;5034803;28;20042;-59
2023/03/03 10:54:00;;;;;;;6.28;2.50;;;6.70;99.90;;;;;;5034162;28;20049;-59
2023/03/03 10:56:27;;;;;;;7.55;2.20;;;6.90;99.90;;;;;;5035516;28;20037;-60
2023/03/03 10:58:54;;;;;;;6.45;2.25;;;7.00;99.90;;;;;;5036145;28;20103;-61
2023/03/03 11:01:21;;;;;;;8.20;2.63;;;7.00;99.90;;;;;;5035473;28;20050;-58
2023/03/03 11:03:50;;;;;;;5.78;2.13;;;7.10;99.90;;;;;;5035355;28;20053;-60
2023/03/03 11:06:17;;;;;;;7.95;2.58;;;7.10;99.90;;;;;;5035705;28;20102;-60
2023/03/03 11:08:44;;;;;;;7.85;2.47;;;7.20;99.90;;;;;;5035600;28;20111;-60
2023/03/03 11:11:11;;;;;;;9.98;2.35;;;7.20;99.90;;;;;;5035917;28;20049;-61
2023/03/03 11:13:37;;;;;;;5.32;2.38;;;7.30;99.90;;;;;;5035187;28;20049;-60
2023/03/03 11:16:04;;;;;;;6.97;2.30;;;7.30;99.90;;;;;;5035937;28;20072;-57
2023/03/03 11:18:31;;;;;;;4.72;2.15;;;7.30;99.90;;;;;;5035475;28;20138;-60
2023/03/03 11:20:58;;;;;;;4.60;2.30;;;7.40;99.90;;;;;;5035438;28;20064;-60
2023/03/03 11:23:25;;;;;;;5.53;2.17;;;7.40;99.90;;;;;;5035556;28;20077;-59
2023/03/03 11:25:52;;;;;;;4.78;2.53;;;7.40;99.90;;;;;;5035168;28;20452;-61
2023/03/03 11:28:18;;;;;;;5.28;2.30;;;7.40;99.90;;;;;;5035516;28;20065;-59
2023/03/03 11:30:45;;;;;;;5.32;2.20;;;7.40;99.90;;;;;;5034936;28;20045;-55
2023/03/03 11:33:12;;;;;;;4.47;2.15;;;7.40;99.90;;;;;;5034931;28;20052;-58
2023/03/03 11:35:39;;;;;;;5.13;1.95;;;7.40;99.90;;;;;;5035441;28;20034;-57
2023/03/03 11:38:06;;;;;;;3.55;1.80;;;7.40;99.90;;;;;;5035278;28;20042;-60
2023/03/03 11:40:33;;;;;;;5.18;1.98;;;7.40;99.90;;;;;;5034736;28;20038;-59
2023/03/03 11:43:00;;;;;;;3.35;1.65;;;7.40;99.90;;;;;;5035263;28;20045;-59
2023/03/03 11:45:27;;;;;;;6.60;2.03;;;7.30;99.90;;;;;;5035075;28;20073;-59
2023/03/03 11:47:54;;;;;;;6.45;2.05;;;7.30;99.90;;;;;;5035161;28;20054;-61
2023/03/03 11:50:21;;;;;;;5.45;2.47;;;7.40;99.90;;;;;;5034593;28;20476;-56
2023/03/03 11:52:48;;;;;;;5.93;2.05;;;7.40;99.90;;;;;;5034851;28;20347;-55
2023/03/03 11:55:14;;;;;;;3.30;1.80;;;7.40;99.90;;;;;;5035155;28;20041;-60
2023/03/03 11:57:41;;;;;;;6.00;1.58;;;7.40;99.90;;;;;;5034380;28;20045;-54
2023/03/03 12:00:08;;;;;;;3.55;1.65;;;7.30;99.90;;;;;;5034382;28;20049;-58
2023/03/03 12:02:37;;;;;;;3.63;1.38;;;7.20;99.90;;;;;;5033257;28;20041;-61
2023/03/03 12:05:04;;;;;;;3.17;1.20;;;7.20;99.90;;;;;;5034366;28;20059;-59
2023/03/03 12:07:31;;;;;;;3.65;1.38;;;7.30;99.90;;;;;;5034373;28;20046;-60
2023/03/03 12:09:57;;;;;;;4.93;1.58;;;7.30;99.90;;;;;;5035099;28;20088;-60
2023/03/03 12:12:24;;;;;;;5.70;1.50;;;7.20;99.90;;;;;;5034283;28;20524;-58
2023/03/03 12:14:51;;;;;;;4.97;1.35;;;7.10;99.90;;;;;;5034645;28;20089;-61
2023/03/03 12:17:18;;;;;;;4.80;1.52;;;7.20;99.90;;;;;;5034788;28;20420;-61
2023/03/03 12:19:46;;;;;;;8.02;2.05;;;7.20;99.90;;;;;;5034538;28;20539;-60
2023/03/03 12:22:12;;;;;;;4.68;1.85;;;7.20;99.90;;;;;;5034491;28;20120;-59
2023/03/03 12:24:41;;;;;;;5.72;2.30;;;7.20;99.90;;;;;;5034541;28;20053;-59
2023/03/03 12:27:08;;;;;;;5.43;2.05;;;7.10;99.90;;;;;;5034258;28;20128;-59
2023/03/03 12:29:34;;;;;;;4.95;1.80;;;7.20;99.90;;;;;;5034069;28;20045;-61
2023/03/03 12:32:01;;;;;;;5.50;1.50;;;7.20;99.90;;;;;;5033591;28;20042;-59
2023/03/03 12:34:31;;;;;;;3.50;1.58;;;7.20;99.90;;;;;;5033926;28;20051;-60
2023/03/03 12:36:58;;;;;;;2.55;1.00;;;7.20;99.90;;;;;;5034008;28;20046;-58
2023/03/03 12:39:25;;;;;;;3.33;1.15;;;7.20;99.90;;;;;;5034261;28;20052;-56
2023/03/03 12:42:01;;;;;;;5.88;1.50;;;7.10;99.90;;;;;;5034003;28;20037;-61
2023/03/03 12:44:31;;;;;;;5.93;1.25;;;7.10;99.90;;;;;;5032355;28;20037;-60
2023/03/03 12:46:57;;;;;;;6.63;1.50;;;7.10;99.90;;;;;;5033744;28;20481;-60
2023/03/03 12:49:24;;;;;;;3.13;1.10;;;7.10;99.90;;;;;;5033577;28;20042;-57
2023/03/03 12:51:51;;;;;;;5.25;1.20;;;7.20;99.90;;;;;;5033571;28;20050;-64
2023/03/03 12:54:18;;;;;;;2.70;0.88;;;7.30;99.90;;;;;;5034236;28;20048;-58